Time;durP1;ratioP1;P1;durP2;ratioP2;P2;SDS_P1;SDS_P2;PMS_P1;PMS_P2;Temp;Humidity;BMP_temperature;BMP_pressure;BME280_temperature;BME280_humidity;BME280_pressure;Samples;Min_cycle;Max_cycle;Signal;HPM_P1;HPM_P2
2021/08/08 00:01:42;;;;;;;2.17;1.98;;;11.90;66.60;;;;;;4993954;28;20719;-56
2021/08/08 00:04:12;;;;;;;2.53;2.33;;;11.90;66.50;;;;;;4992535;28;20260;-51
2021/08/08 00:06:43;;;;;;;2.72;2.10;;;11.90;66.50;;;;;;4992911;28;20244;-52
2021/08/08 00:09:15;;;;;;;2.42;1.92;;;11.90;66.40;;;;;;4994216;28;20236;-50
2021/08/08 00:11:46;;;;;;;2.67;2.15;;;11.90;66.40;;;;;;4994246;28;20264;-51
2021/08/08 00:14:16;;;;;;;3.28;2.15;;;12.00;66.40;;;;;;4994480;28;20688;-52
2021/08/08 00:16:47;;;;;;;2.75;2.08;;;12.00;66.30;;;;;;4994369;28;20257;-49
2021/08/08 00:19:17;;;;;;;3.40;2.28;;;12.00;66.30;;;;;;4993780;28;20290;-50
2021/08/08 00:21:48;;;;;;;3.28;1.80;;;12.00;66.20;;;;;;4994089;28;20237;-56
2021/08/08 00:24:20;;;;;;;2.75;2.20;;;12.00;66.20;;;;;;4994100;28;20229;-50
2021/08/08 00:26:51;;;;;;;2.90;1.92;;;12.00;66.20;;;;;;4993979;28;20253;-53
2021/08/08 00:29:22;;;;;;;3.17;2.25;;;12.00;66.20;;;;;;4994190;28;20201;-48
2021/08/08 00:31:52;;;;;;;2.55;2.10;;;12.00;66.10;;;;;;4993872;28;20264;-55
2021/08/08 00:34:22;;;;;;;3.15;1.92;;;12.00;66.10;;;;;;4993808;28;20696;-53
2021/08/08 00:36:53;;;;;;;3.17;2.40;;;12.00;66.10;;;;;;4993608;28;20253;-48
2021/08/08 00:39:25;;;;;;;4.85;2.53;;;12.00;66.10;;;;;;5014883;23;20256;-57
2021/08/08 00:41:56;;;;;;;3.00;2.42;;;11.90;66.00;;;;;;5013013;28;20201;-53
2021/08/08 00:44:26;;;;;;;2.72;2.33;;;11.90;66.00;;;;;;5013238;28;20255;-54
2021/08/08 00:46:57;;;;;;;4.35;2.30;;;11.90;66.00;;;;;;5013431;28;20252;-55
2021/08/08 00:49:28;;;;;;;4.13;2.30;;;11.90;66.00;;;;;;5013495;28;20201;-55
2021/08/08 00:51:58;;;;;;;4.25;2.53;;;11.90;65.90;;;;;;5013289;28;20264;-51
2021/08/08 00:54:30;;;;;;;3.45;2.30;;;11.90;65.90;;;;;;5012997;28;20278;-52
2021/08/08 00:57:01;;;;;;;3.47;2.42;;;11.90;65.90;;;;;;5012652;28;20287;-54
2021/08/08 00:59:31;;;;;;;2.60;2.03;;;11.90;65.90;;;;;;5012938;28;20232;-55
2021/08/08 01:02:02;;;;;;;2.70;2.00;;;11.90;65.90;;;;;;5012878;28;20232;-53
2021/08/08 01:04:34;;;;;;;3.83;2.50;;;11.90;65.80;;;;;;5012705;28;20224;-55
2021/08/08 01:07:06;;;;;;;2.85;2.42;;;11.90;65.80;;;;;;5012630;28;20640;-54
2021/08/08 01:09:40;;;;;;;2.60;2.20;;;11.90;65.80;;;;;;5012932;28;20275;-54
2021/08/08 01:12:10;;;;;;;3.92;2.40;;;11.90;65.80;;;;;;5012617;28;20232;-50
2021/08/08 01:14:41;;;;;;;3.78;2.55;;;11.90;65.80;;;;;;5012970;28;20233;-54
2021/08/08 01:17:11;;;;;;;5.05;2.50;;;11.90;65.90;;;;;;5012493;28;20221;-52
2021/08/08 01:19:44;;;;;;;4.03;2.90;;;11.90;65.80;;;;;;5012168;28;20197;-50
2021/08/08 01:22:14;;;;;;;3.90;2.38;;;11.90;65.80;;;;;;5012333;28;20204;-51
2021/08/08 01:24:47;;;;;;;4.30;2.60;;;11.80;65.70;;;;;;5012618;28;20228;-52
2021/08/08 01:27:18;;;;;;;5.63;2.45;;;11.80;65.70;;;;;;5012033;28;20200;-53
2021/08/08 01:29:49;;;;;;;4.07;2.42;;;11.80;65.70;;;;;;5012065;28;20692;-52
2021/08/08 01:32:19;;;;;;;4.40;2.35;;;11.80;65.70;;;;;;5012128;28;20221;-53
2021/08/08 01:34:49;;;;;;;3.58;2.30;;;11.80;65.70;;;;;;5012254;28;20228;-53
2021/08/08 01:37:21;;;;;;;5.38;2.55;;;11.80;65.70;;;;;;5012127;28;20236;-51
2021/08/08 01:39:56;;;;;;;4.15;2.40;;;11.80;65.60;;;;;;5010708;23;20225;-42
2021/08/08 01:42:27;;;;;;;3.95;2.45;;;11.80;65.60;;;;;;4992194;28;20696;-54
2021/08/08 01:44:57;;;;;;;2.10;1.80;;;11.80;65.50;;;;;;4993245;28;20233;-44
2021/08/08 01:47:29;;;;;;;2.97;2.20;;;11.80;65.60;;;;;;4992680;28;20229;-48
2021/08/08 01:49:59;;;;;;;3.10;2.47;;;11.80;65.60;;;;;;4992423;28;20236;-43
2021/08/08 01:52:30;;;;;;;2.55;2.35;;;11.80;65.50;;;;;;4992540;28;20308;-57
2021/08/08 01:55:02;;;;;;;3.58;2.15;;;11.80;65.60;;;;;;4990090;28;20232;-56
2021/08/08 01:57:33;;;;;;;2.65;2.22;;;11.70;65.40;;;;;;4983123;28;20233;-54
2021/08/08 02:00:04;;;;;;;3.10;2.17;;;11.70;65.50;;;;;;4992407;28;20288;-42
2021/08/08 02:02:34;;;;;;;4.10;2.25;;;11.70;65.50;;;;;;4992203;28;20292;-45
2021/08/08 02:05:06;;;;;;;3.00;2.40;;;11.70;65.50;;;;;;4992459;28;20677;-44
2021/08/08 02:07:36;;;;;;;3.70;2.28;;;11.70;65.50;;;;;;4992361;28;20248;-47
2021/08/08 02:10:09;;;;;;;2.60;2.10;;;11.70;65.60;;;;;;4992119;28;20311;-44
2021/08/08 02:12:39;;;;;;;4.80;3.65;;;11.70;65.50;;;;;;4992134;28;20315;-45
2021/08/08 02:15:10;;;;;;;6.18;4.43;;;11.70;64.70;;;;;;4986720;28;20696;-44
2021/08/08 02:17:42;;;;;;;8.60;7.70;;;11.60;63.50;;;;;;4991169;28;20194;-44
2021/08/08 02:20:15;;;;;;;10.30;8.75;;;11.60;62.70;;;;;;4988190;28;20288;-44
2021/08/08 02:22:45;;;;;;;10.25;8.18;;;11.60;62.10;;;;;;4988906;28;20668;-43
2021/08/08 02:25:18;;;;;;;8.75;5.78;;;11.50;61.70;;;;;;4984457;28;20654;-54
2021/08/08 02:27:48;;;;;;;5.80;3.70;;;11.50;61.40;;;;;;4989840;28;20677;-50
2021/08/08 02:30:18;;;;;;;5.35;2.70;;;11.50;61.30;;;;;;4991422;28;20559;-43
2021/08/08 02:32:49;;;;;;;4.63;4.22;;;11.40;61.00;;;;;;4991260;28;20283;-44
2021/08/08 02:35:19;;;;;;;4.88;4.47;;;11.40;61.00;;;;;;4991361;28;20249;-43
2021/08/08 02:37:50;;;;;;;6.38;5.78;;;11.30;60.90;;;;;;4991272;28;20240;-47
2021/08/08 02:40:22;;;;;;;5.97;5.38;;;11.30;60.90;;;;;;4991292;28;20237;-47
2021/08/08 02:42:52;;;;;;;4.60;4.20;;;11.20;60.80;;;;;;4990775;28;20244;-44
2021/08/08 02:45:23;;;;;;;3.60;3.25;;;11.20;60.70;;;;;;4990928;28;20260;-46
2021/08/08 02:47:53;;;;;;;4.22;3.80;;;11.10;60.60;;;;;;4990307;28;20660;-46
2021/08/08 02:50:24;;;;;;;3.30;3.00;;;11.10;60.40;;;;;;4991302;28;20236;-44
2021/08/08 02:52:55;;;;;;;2.33;2.00;;;11.10;60.40;;;;;;4990196;28;20670;-45
2021/08/08 02:55:27;;;;;;;1.92;1.70;;;11.00;60.20;;;;;;4989009;28;20218;-43
2021/08/08 02:57:58;;;;;;;2.33;2.13;;;11.00;60.10;;;;;;4991586;28;20240;-43
2021/08/08 03:00:28;;;;;;;2.70;2.50;;;10.90;60.00;;;;;;4990336;28;20631;-44
2021/08/08 03:02:59;;;;;;;2.08;1.88;;;10.90;60.10;;;;;;4991265;28;20706;-47
2021/08/08 03:05:29;;;;;;;2.10;1.77;;;10.80;60.00;;;;;;4990668;28;20304;-53
2021/08/08 03:07:59;;;;;;;1.55;1.45;;;10.80;60.00;;;;;;4991492;28;20287;-50
2021/08/08 03:10:32;;;;;;;1.83;1.73;;;10.80;60.00;;;;;;4993536;28;20502;-46
2021/08/08 03:13:02;;;;;;;2.20;1.90;;;10.70;60.00;;;;;;4994154;28;20263;-47
2021/08/08 03:15:33;;;;;;;3.60;1.98;;;10.70;60.00;;;;;;4994359;28;20260;-44
2021/08/08 03:18:03;;;;;;;2.88;2.65;;;10.60;60.00;;;;;;4994585;28;20293;-43
2021/08/08 03:20:33;;;;;;;2.20;2.00;;;10.60;60.20;;;;;;4994645;28;20240;-43
2021/08/08 03:23:04;;;;;;;1.92;1.73;;;10.60;60.30;;;;;;4993537;28;20633;-46
2021/08/08 03:25:36;;;;;;;2.55;2.03;;;10.50;60.30;;;;;;4994581;28;20256;-46
2021/08/08 03:28:07;;;;;;;3.33;3.03;;;10.50;60.30;;;;;;4993384;28;20233;-45
2021/08/08 03:30:37;;;;;;;4.07;3.03;;;10.40;60.30;;;;;;4994197;28;20246;-44
2021/08/08 03:33:08;;;;;;;3.38;2.40;;;10.40;60.20;;;;;;4993390;28;20237;-46
2021/08/08 03:35:38;;;;;;;2.72;2.10;;;10.40;60.40;;;;;;4994470;28;20634;-47
2021/08/08 03:40:46;;;;;;;2.20;2.00;;;10.30;61.20;;;;;;5031368;28;20220;-53
2021/08/08 03:43:17;;;;;;;4.72;1.80;;;10.30;61.50;;;;;;5033193;28;20228;-51
2021/08/08 03:45:47;;;;;;;2.10;1.90;;;10.30;61.80;;;;;;5025186;28;20736;-49
2021/08/08 03:48:17;;;;;;;3.38;2.50;;;10.40;62.10;;;;;;5012536;28;20240;-51
2021/08/08 03:50:48;;;;;;;2.60;2.22;;;10.30;62.20;;;;;;5013846;28;20554;-52
2021/08/08 03:53:18;;;;;;;2.50;2.10;;;10.40;62.50;;;;;;5012424;28;20714;-50
2021/08/08 03:55:51;;;;;;;2.78;1.60;;;10.40;62.70;;;;;;5013768;28;20673;-53
2021/08/08 03:58:22;;;;;;;2.90;2.20;;;10.40;62.80;;;;;;5013621;28;20762;-50
2021/08/08 04:00:52;;;;;;;2.13;1.85;;;10.40;63.00;;;;;;5013280;28;20731;-56
2021/08/08 04:03:23;;;;;;;1.92;1.73;;;10.40;63.10;;;;;;5013361;28;20201;-57
2021/08/08 04:05:53;;;;;;;2.00;1.80;;;10.40;63.30;;;;;;5013022;28;20223;-52
2021/08/08 04:08:25;;;;;;;2.90;1.77;;;10.40;63.40;;;;;;4993936;28;20288;-53
2021/08/08 04:10:57;;;;;;;2.50;2.17;;;10.40;63.50;;;;;;4993228;28;20255;-54
2021/08/08 04:13:28;;;;;;;2.53;2.00;;;10.40;63.50;;;;;;4993522;28;20564;-53
2021/08/08 04:15:58;;;;;;;2.00;1.80;;;10.50;63.60;;;;;;5008430;28;20629;-56
2021/08/08 04:18:29;;;;;;;2.65;1.83;;;10.50;63.60;;;;;;5012275;28;20228;-52
2021/08/08 04:20:59;;;;;;;2.28;1.90;;;10.50;63.70;;;;;;5012872;28;20843;-52
2021/08/08 04:23:29;;;;;;;2.75;2.03;;;10.50;63.70;;;;;;5012478;28;20251;-54
2021/08/08 04:26:02;;;;;;;3.00;2.10;;;10.50;63.80;;;;;;5013121;28;20256;-55
2021/08/08 04:28:39;;;;;;;2.03;1.83;;;10.60;63.90;;;;;;5011832;28;20185;-57
2021/08/08 04:31:09;;;;;;;2.05;1.83;;;10.60;64.00;;;;;;5013330;28;20266;-53
2021/08/08 04:33:40;;;;;;;2.85;2.15;;;10.60;64.00;;;;;;5012158;28;20256;-54
2021/08/08 04:36:10;;;;;;;2.10;1.88;;;10.60;64.10;;;;;;5012324;28;20299;-56
2021/08/08 04:38:41;;;;;;;2.30;2.10;;;10.60;64.20;;;;;;5027327;23;20545;-44
2021/08/08 04:41:13;;;;;;;2.65;2.05;;;10.60;64.20;;;;;;5051773;28;20426;-42
2021/08/08 04:43:44;;;;;;;2.55;2.20;;;10.60;64.30;;;;;;5051990;28;20230;-45
2021/08/08 04:46:14;;;;;;;2.47;2.22;;;10.60;64.20;;;;;;5051686;28;20223;-45
2021/08/08 04:48:45;;;;;;;2.08;1.88;;;10.70;64.40;;;;;;5052406;28;20226;-47
2021/08/08 04:51:15;;;;;;;1.75;1.65;;;10.70;64.40;;;;;;5052107;28;20231;-46
2021/08/08 04:53:45;;;;;;;2.47;2.10;;;10.70;64.40;;;;;;5052668;28;20673;-42
2021/08/08 04:56:18;;;;;;;2.55;2.20;;;10.70;64.40;;;;;;5052166;28;20250;-47
2021/08/08 04:58:48;;;;;;;1.92;1.75;;;10.70;64.40;;;;;;5052124;28;20306;-57
2021/08/08 05:01:18;;;;;;;3.80;2.55;;;10.70;64.40;;;;;;5052439;28;20242;-50
2021/08/08 05:03:49;;;;;;;2.22;2.03;;;10.80;64.40;;;;;;5052361;28;20511;-42
2021/08/08 05:06:19;;;;;;;1.85;1.67;;;10.80;64.40;;;;;;5051191;28;20281;-42
2021/08/08 05:08:50;;;;;;;2.88;2.20;;;10.80;64.40;;;;;;5050714;28;20231;-45
2021/08/08 05:11:22;;;;;;;2.53;2.10;;;10.80;64.50;;;;;;5051606;28;20235;-43
2021/08/08 05:13:52;;;;;;;2.47;2.25;;;10.80;64.50;;;;;;5043817;28;20310;-56
2021/08/08 05:16:23;;;;;;;1.80;1.70;;;10.80;64.60;;;;;;5031085;28;20251;-41
2021/08/08 05:18:53;;;;;;;2.53;2.20;;;10.80;64.70;;;;;;5031295;28;20230;-52
2021/08/08 05:21:24;;;;;;;3.67;2.13;;;10.80;64.70;;;;;;5032644;28;20435;-56
2021/08/08 05:23:54;;;;;;;2.15;1.95;;;10.80;64.70;;;;;;5031475;28;20390;-41
2021/08/08 05:26:26;;;;;;;2.55;2.08;;;10.80;64.70;;;;;;5031619;28;20251;-45
2021/08/08 05:28:57;;;;;;;2.13;1.90;;;10.80;64.80;;;;;;5031682;28;20236;-44
2021/08/08 05:31:27;;;;;;;2.22;2.03;;;10.80;64.80;;;;;;5031077;28;20231;-42
2021/08/08 05:33:58;;;;;;;2.97;2.08;;;10.90;64.90;;;;;;5043335;28;20269;-43
2021/08/08 05:36:28;;;;;;;2.30;2.10;;;10.90;65.00;;;;;;5050961;28;20702;-52
2021/08/08 05:38:59;;;;;;;2.08;1.88;;;10.90;65.20;;;;;;5052272;28;20614;-44
2021/08/08 05:41:31;;;;;;;2.65;2.13;;;10.90;65.20;;;;;;5050909;28;20669;-43
2021/08/08 05:44:02;;;;;;;3.28;2.65;;;10.90;65.20;;;;;;5051333;28;20682;-46
2021/08/08 05:46:32;;;;;;;2.65;2.45;;;11.00;65.20;;;;;;5050379;28;20306;-42
2021/08/08 05:49:03;;;;;;;2.47;2.28;;;11.00;65.10;;;;;;5047268;28;20226;-44
2021/08/08 05:51:33;;;;;;;2.40;2.20;;;11.00;65.10;;;;;;5051188;28;20238;-42
2021/08/08 05:54:03;;;;;;;3.00;2.50;;;11.00;65.00;;;;;;5050429;28;20269;-41
2021/08/08 05:56:36;;;;;;;2.58;2.38;;;11.00;65.10;;;;;;5050344;28;20250;-42
2021/08/08 05:59:06;;;;;;;3.53;2.53;;;11.00;65.20;;;;;;5050396;28;20282;-44
2021/08/08 06:01:37;;;;;;;2.63;2.42;;;11.00;65.10;;;;;;5050377;28;20413;-46
2021/08/08 06:04:07;;;;;;;2.63;2.40;;;11.00;65.10;;;;;;5050185;28;20242;-42
2021/08/08 06:06:38;;;;;;;2.75;2.53;;;11.00;65.10;;;;;;5050123;28;20255;-42
2021/08/08 06:09:08;;;;;;;3.30;2.42;;;11.00;65.10;;;;;;5048645;28;20235;-51
2021/08/08 06:11:40;;;;;;;3.45;2.55;;;11.00;65.10;;;;;;5051437;28;20686;-47
2021/08/08 06:14:11;;;;;;;2.90;2.60;;;11.00;65.10;;;;;;5050656;28;20266;-41
2021/08/08 06:16:41;;;;;;;3.65;2.75;;;11.00;65.00;;;;;;5049579;28;20259;-47
2021/08/08 06:19:12;;;;;;;3.47;2.90;;;11.00;65.00;;;;;;5034351;28;20221;-52
2021/08/08 06:21:42;;;;;;;3.13;2.63;;;11.00;65.00;;;;;;5049518;28;20230;-51
2021/08/08 06:24:12;;;;;;;3.53;2.88;;;11.00;65.00;;;;;;5051126;28;20242;-41
2021/08/08 06:26:45;;;;;;;5.72;3.35;;;11.00;65.00;;;;;;5050262;28;20247;-48
2021/08/08 06:29:15;;;;;;;3.08;2.78;;;11.00;65.80;;;;;;5050737;28;20250;-46
2021/08/08 06:31:45;;;;;;;4.22;3.50;;;11.00;65.00;;;;;;5049833;28;20624;-51
2021/08/08 06:34:16;;;;;;;3.50;2.80;;;11.00;65.00;;;;;;5050884;28;20314;-50
2021/08/08 06:36:46;;;;;;;3.42;3.13;;;11.00;65.00;;;;;;5050432;28;20265;-42
2021/08/08 06:39:17;;;;;;;3.25;2.72;;;11.10;65.20;;;;;;5054983;23;20255;-52
2021/08/08 06:41:49;;;;;;;3.83;3.03;;;11.00;65.10;;;;;;5030600;28;20235;-53
2021/08/08 06:44:19;;;;;;;3.58;3.13;;;11.10;65.30;;;;;;5032995;28;20287;-53
2021/08/08 06:46:50;;;;;;;3.42;3.13;;;11.10;65.20;;;;;;5050250;28;20251;-54
2021/08/08 06:49:20;;;;;;;3.58;2.67;;;11.10;65.70;;;;;;5054095;28;20281;-54
2021/08/08 06:51:51;;;;;;;3.50;2.70;;;11.10;66.40;;;;;;5053936;28;20660;-51
2021/08/08 06:54:21;;;;;;;3.83;3.47;;;11.10;66.70;;;;;;5054115;28;20262;-54
2021/08/08 06:56:53;;;;;;;3.15;2.85;;;11.10;66.50;;;;;;5054134;28;20276;-54
2021/08/08 06:59:25;;;;;;;3.63;3.05;;;11.10;66.30;;;;;;5053427;28;20274;-58
2021/08/08 07:01:56;;;;;;;4.50;3.10;;;11.20;66.30;;;;;;5053572;28;20196;-53
2021/08/08 07:04:26;;;;;;;4.03;3.17;;;11.20;66.10;;;;;;5052922;28;20239;-55
2021/08/08 07:06:56;;;;;;;4.32;2.88;;;11.20;66.00;;;;;;5045180;28;20251;-54
2021/08/08 07:09:27;;;;;;;4.07;2.97;;;11.10;65.80;;;;;;5034082;28;20234;-55
2021/08/08 07:11:59;;;;;;;3.13;2.78;;;11.20;65.70;;;;;;5032705;28;20656;-56
2021/08/08 07:14:33;;;;;;;3.83;3.05;;;11.10;65.60;;;;;;5036615;28;20690;-55
2021/08/08 07:17:04;;;;;;;4.38;3.35;;;11.20;65.60;;;;;;5053605;28;20259;-53
2021/08/08 07:19:34;;;;;;;3.88;3.13;;;11.20;65.50;;;;;;5033431;28;20231;-54
2021/08/08 07:22:05;;;;;;;3.60;3.28;;;11.20;65.40;;;;;;5033863;28;20281;-55
2021/08/08 07:24:35;;;;;;;3.85;2.90;;;11.20;65.40;;;;;;5034086;28;20232;-54
2021/08/08 07:27:07;;;;;;;4.35;3.47;;;11.20;66.20;;;;;;5034250;28;20255;-52
2021/08/08 07:29:38;;;;;;;4.10;3.00;;;11.20;65.30;;;;;;5034251;28;20315;-53
2021/08/08 07:32:09;;;;;;;3.50;3.20;;;11.20;65.30;;;;;;5034044;28;20677;-53
2021/08/08 07:34:41;;;;;;;3.78;3.28;;;11.20;65.30;;;;;;5033789;28;20312;-56
2021/08/08 07:37:11;;;;;;;4.43;3.08;;;11.20;65.20;;;;;;5033842;28;20679;-54
2021/08/08 07:39:42;;;;;;;3.35;2.85;;;11.20;65.40;;;;;;5036567;23;20638;-52
2021/08/08 07:42:14;;;;;;;3.75;2.67;;;11.20;65.50;;;;;;5014722;28;20235;-41
2021/08/08 07:44:44;;;;;;;6.20;3.35;;;11.20;66.20;;;;;;5014348;28;20232;-47
2021/08/08 07:47:16;;;;;;;3.28;2.80;;;11.20;66.50;;;;;;5013740;28;20256;-41
2021/08/08 07:49:46;;;;;;;5.50;3.17;;;11.20;66.40;;;;;;4996285;28;20198;-47
2021/08/08 07:52:16;;;;;;;3.67;3.00;;;11.20;66.30;;;;;;4994915;28;20201;-43
2021/08/08 07:54:47;;;;;;;3.13;2.83;;;11.20;66.20;;;;;;4993683;28;20236;-53
2021/08/08 07:57:19;;;;;;;3.33;2.90;;;11.30;66.10;;;;;;4993902;28;20201;-41
2021/08/08 07:59:50;;;;;;;5.15;3.05;;;11.30;66.00;;;;;;5010707;28;20235;-44
2021/08/08 08:02:20;;;;;;;3.97;2.80;;;11.30;65.90;;;;;;5013938;28;20236;-48
2021/08/08 08:04:51;;;;;;;6.30;3.28;;;11.30;65.80;;;;;;5013671;28;20229;-52
2021/08/08 08:07:21;;;;;;;5.25;2.90;;;11.30;65.70;;;;;;5013674;28;20820;-41
2021/08/08 08:09:52;;;;;;;6.50;3.88;;;11.30;65.60;;;;;;5013325;28;20243;-43
2021/08/08 08:12:24;;;;;;;5.13;3.22;;;11.20;65.50;;;;;;5009970;28;20228;-41
2021/08/08 08:14:54;;;;;;;5.78;3.65;;;11.30;65.60;;;;;;5013493;28;20240;-41
2021/08/08 08:17:25;;;;;;;4.95;3.13;;;11.20;65.50;;;;;;5013301;28;20232;-42
2021/08/08 08:19:55;;;;;;;3.70;3.03;;;11.20;65.50;;;;;;5013757;28;20232;-43
2021/08/08 08:22:25;;;;;;;3.17;2.78;;;11.20;65.40;;;;;;5014073;28;20630;-41
2021/08/08 08:24:56;;;;;;;3.78;3.03;;;11.20;65.40;;;;;;5013564;28;20703;-42
2021/08/08 08:27:28;;;;;;;4.38;3.22;;;11.20;65.40;;;;;;5013751;28;20253;-41
2021/08/08 08:29:58;;;;;;;3.90;3.20;;;11.20;65.40;;;;;;5013496;28;20232;-42
2021/08/08 08:32:29;;;;;;;4.25;2.88;;;11.20;65.30;;;;;;5013536;28;20519;-41
2021/08/08 08:35:01;;;;;;;4.60;3.28;;;11.20;65.30;;;;;;5013388;28;20286;-41
2021/08/08 08:37:32;;;;;;;4.32;2.67;;;11.20;65.30;;;;;;5013311;28;20512;-46
2021/08/08 08:40:02;;;;;;;3.85;2.70;;;11.20;65.20;;;;;;5035315;23;20266;-54
2021/08/08 08:42:35;;;;;;;5.65;3.10;;;11.20;65.20;;;;;;5033246;28;20231;-52
2021/08/08 08:45:06;;;;;;;3.83;2.72;;;11.20;65.20;;;;;;5033037;28;20238;-50
2021/08/08 08:47:36;;;;;;;3.83;2.80;;;11.20;65.20;;;;;;5032853;28;20236;-52
2021/08/08 08:50:08;;;;;;;4.10;2.90;;;11.20;65.20;;;;;;5032473;28;20235;-51
2021/08/08 08:52:38;;;;;;;4.40;3.28;;;11.20;65.20;;;;;;5032208;28;20203;-51
2021/08/08 08:55:09;;;;;;;4.80;3.00;;;11.20;65.20;;;;;;5032410;28;20232;-51
2021/08/08 08:57:43;;;;;;;4.00;2.55;;;11.10;65.20;;;;;;5032519;28;20718;-51
2021/08/08 09:00:14;;;;;;;5.07;2.63;;;11.20;65.20;;;;;;5032413;28;20196;-50
2021/08/08 09:02:45;;;;;;;5.15;2.90;;;11.20;65.30;;;;;;5032784;28;20228;-53
2021/08/08 09:05:15;;;;;;;3.38;2.78;;;11.20;65.20;;;;;;5032369;28;20238;-53
2021/08/08 09:07:45;;;;;;;5.03;2.92;;;11.10;65.20;;;;;;5031140;28;20240;-48
2021/08/08 09:10:16;;;;;;;4.55;2.72;;;11.10;65.20;;;;;;5031935;28;20292;-52
2021/08/08 09:12:57;;;;;;;3.72;2.70;;;11.20;65.30;;;;;;5027013;28;20234;-51
2021/08/08 09:15:41;;;;;;;4.47;3.08;;;11.20;65.50;;;;;;5031369;28;20219;-49
2021/08/08 09:18:16;;;;;;;3.03;2.70;;;11.20;65.40;;;;;;5028038;28;20200;-52
2021/08/08 09:20:46;;;;;;;3.67;2.53;;;11.20;65.40;;;;;;5029246;28;20191;-51
2021/08/08 09:23:18;;;;;;;6.00;3.20;;;11.20;65.30;;;;;;5029363;28;20235;-54
2021/08/08 09:25:53;;;;;;;3.60;2.63;;;11.20;65.40;;;;;;5029104;28;20255;-50
2021/08/08 09:28:30;;;;;;;2.45;2.25;;;11.20;65.40;;;;;;5028534;28;20207;-51
2021/08/08 09:31:01;;;;;;;3.67;2.75;;;11.20;65.40;;;;;;5027618;28;20227;-51
2021/08/08 09:33:41;;;;;;;3.17;2.60;;;11.10;65.30;;;;;;5028034;28;20310;-54
2021/08/08 09:36:12;;;;;;;6.63;2.70;;;11.10;65.30;;;;;;5027709;28;20330;-53
2021/08/08 09:38:52;;;;;;;3.40;2.55;;;11.10;65.30;;;;;;5041908;23;20715;-42
2021/08/08 09:41:27;;;;;;;3.63;2.55;;;11.10;65.30;;;;;;4987898;28;20201;-42
2021/08/08 09:44:08;;;;;;;3.15;2.67;;;11.10;65.30;;;;;;4989376;28;20244;-44
2021/08/08 09:46:39;;;;;;;3.03;2.30;;;11.10;65.30;;;;;;4989423;28;20225;-42
2021/08/08 09:49:14;;;;;;;2.72;2.13;;;11.10;65.30;;;;;;4988913;28;20758;-42
2021/08/08 09:51:53;;;;;;;2.83;2.50;;;11.10;65.20;;;;;;4987405;28;20193;-44
2021/08/08 09:54:24;;;;;;;4.32;2.70;;;11.10;65.20;;;;;;4989070;28;20287;-46
2021/08/08 09:57:03;;;;;;;3.22;2.92;;;11.10;65.20;;;;;;4988939;28;20311;-44
2021/08/08 09:59:36;;;;;;;4.43;2.38;;;11.10;65.10;;;;;;4974350;28;20750;-42
2021/08/08 10:02:06;;;;;;;4.03;2.55;;;11.20;65.10;;;;;;4970037;28;20293;-42
2021/08/08 10:04:37;;;;;;;3.33;2.63;;;11.20;65.10;;;;;;4973880;28;20273;-42
2021/08/08 10:07:07;;;;;;;4.90;3.03;;;11.10;65.10;;;;;;4988597;28;20253;-53
2021/08/08 10:09:38;;;;;;;6.20;2.80;;;11.10;65.10;;;;;;4988566;28;20288;-43
2021/08/08 10:12:11;;;;;;;4.68;2.97;;;11.10;65.10;;;;;;4989398;28;20237;-47
2021/08/08 10:14:43;;;;;;;4.85;2.97;;;11.10;65.10;;;;;;4988852;28;20313;-54
2021/08/08 10:17:14;;;;;;;6.70;2.83;;;11.10;65.20;;;;;;4989055;28;20260;-49
2021/08/08 10:19:44;;;;;;;4.32;2.83;;;11.10;65.10;;;;;;4988630;28;20611;-48
2021/08/08 10:22:14;;;;;;;4.40;2.60;;;11.10;65.10;;;;;;4988504;28;20686;-55
2021/08/08 10:24:45;;;;;;;3.92;2.50;;;11.10;65.10;;;;;;4988191;28;20229;-42
2021/08/08 10:27:21;;;;;;;4.10;2.67;;;11.10;65.10;;;;;;4988585;28;20737;-44
2021/08/08 10:29:58;;;;;;;3.75;2.83;;;11.10;65.10;;;;;;4988144;28;20221;-46
2021/08/08 10:32:29;;;;;;;4.15;2.70;;;11.10;65.10;;;;;;4987868;28;20292;-51
2021/08/08 10:34:59;;;;;;;3.90;2.60;;;11.10;65.10;;;;;;4988687;28;20327;-55
2021/08/08 10:37:29;;;;;;;3.75;2.80;;;11.10;65.00;;;;;;4988397;28;20634;-48
2021/08/08 10:40:00;;;;;;;5.05;2.92;;;11.10;65.20;;;;;;4989363;28;20249;-46
2021/08/08 10:42:30;;;;;;;4.80;2.90;;;11.10;65.00;;;;;;4988581;28;20284;-48
2021/08/08 10:45:03;;;;;;;4.35;2.47;;;11.10;65.00;;;;;;4988893;28;20232;-48
2021/08/08 10:47:33;;;;;;;4.28;3.40;;;11.10;65.00;;;;;;4988299;28;20241;-49
2021/08/08 10:50:11;;;;;;;5.07;3.20;;;11.10;65.00;;;;;;4969057;28;20245;-44
2021/08/08 10:52:42;;;;;;;4.32;2.90;;;11.10;65.00;;;;;;4966951;28;20296;-44
2021/08/08 10:55:22;;;;;;;4.40;2.85;;;11.10;65.00;;;;;;4969353;28;20324;-46
2021/08/08 10:57:53;;;;;;;4.85;2.85;;;11.10;65.00;;;;;;4969191;28;20289;-51
2021/08/08 11:00:32;;;;;;;3.90;2.70;;;11.10;65.00;;;;;;4975849;28;20288;-52
2021/08/08 11:03:13;;;;;;;4.88;2.55;;;11.10;65.00;;;;;;4990972;28;20201;-52
2021/08/08 11:05:43;;;;;;;4.57;2.95;;;11.10;65.00;;;;;;4990004;28;20303;-45
2021/08/08 11:08:14;;;;;;;5.50;3.25;;;11.10;65.00;;;;;;4991437;28;20233;-42
2021/08/08 11:10:45;;;;;;;3.90;2.72;;;11.10;65.00;;;;;;4990941;28;20198;-44
2021/08/08 11:13:22;;;;;;;5.93;2.90;;;11.10;65.00;;;;;;4991434;28;20629;-50
2021/08/08 11:15:54;;;;;;;4.47;2.75;;;11.10;65.00;;;;;;4991020;28;20343;-51
2021/08/08 11:18:34;;;;;;;5.95;3.17;;;11.10;65.00;;;;;;4991723;28;20236;-49
2021/08/08 11:21:13;;;;;;;4.82;2.63;;;11.10;65.00;;;;;;4991316;28;20280;-51
2021/08/08 11:23:44;;;;;;;6.07;2.60;;;11.10;64.90;;;;;;4991226;28;20650;-51
2021/08/08 11:26:18;;;;;;;3.83;2.40;;;11.10;65.00;;;;;;4990665;28;20297;-54
2021/08/08 11:28:54;;;;;;;5.25;3.22;;;11.10;64.90;;;;;;4990965;28;20194;-49
2021/08/08 11:31:26;;;;;;;7.60;3.30;;;11.10;65.00;;;;;;4994090;28;20237;-53
2021/08/08 11:34:00;;;;;;;5.28;2.58;;;11.10;64.90;;;;;;4994732;28;20222;-57
2021/08/08 11:36:32;;;;;;;4.95;2.88;;;11.10;65.00;;;;;;4994333;28;20300;-53
2021/08/08 11:39:02;;;;;;;4.93;2.80;;;11.10;65.00;;;;;;4995165;28;20241;-48
2021/08/08 11:41:32;;;;;;;4.35;2.78;;;11.10;64.90;;;;;;4994979;28;20232;-51
2021/08/08 11:44:08;;;;;;;3.17;2.50;;;11.10;64.90;;;;;;4994919;28;20666;-49
2021/08/08 11:46:41;;;;;;;4.80;2.58;;;11.10;64.90;;;;;;4994746;28;20292;-54
2021/08/08 11:49:18;;;;;;;5.72;2.88;;;11.10;64.90;;;;;;4994870;28;20284;-51
2021/08/08 11:51:58;;;;;;;5.57;2.88;;;11.10;64.90;;;;;;4994847;28;20615;-52
2021/08/08 11:54:29;;;;;;;4.93;2.88;;;11.10;64.90;;;;;;4994780;28;20701;-50
2021/08/08 11:56:59;;;;;;;5.80;2.75;;;11.10;64.80;;;;;;4994749;28;20256;-48
2021/08/08 11:59:30;;;;;;;6.25;3.15;;;11.10;64.80;;;;;;4994840;28;20232;-51
2021/08/08 12:02:04;;;;;;;4.60;2.60;;;11.10;64.80;;;;;;4994428;28;20236;-54
2021/08/08 12:04:35;;;;;;;4.32;2.45;;;11.10;64.80;;;;;;4994583;28;20233;-53
2021/08/08 12:07:06;;;;;;;7.75;3.13;;;11.10;64.80;;;;;;4988447;28;20241;-49
2021/08/08 12:09:36;;;;;;;6.85;3.10;;;11.10;64.80;;;;;;4974929;28;20697;-54
2021/08/08 12:12:07;;;;;;;5.22;2.92;;;11.10;64.70;;;;;;4974769;28;20233;-51
2021/08/08 12:14:38;;;;;;;4.60;2.78;;;11.10;64.80;;;;;;4974710;28;20321;-45
2021/08/08 12:17:12;;;;;;;4.60;2.85;;;11.10;64.70;;;;;;4975029;28;20269;-51
2021/08/08 12:19:43;;;;;;;4.22;2.78;;;11.10;64.70;;;;;;4974790;28;20429;-58
2021/08/08 12:22:15;;;;;;;5.10;2.83;;;11.10;64.70;;;;;;4974214;28;20280;-55
2021/08/08 12:24:46;;;;;;;4.03;2.30;;;11.10;64.70;;;;;;4974631;28;20635;-57
2021/08/08 12:27:18;;;;;;;5.65;2.95;;;11.10;64.70;;;;;;4974829;28;20289;-49
2021/08/08 12:29:49;;;;;;;5.78;3.15;;;11.10;64.70;;;;;;4974462;28;20333;-58
2021/08/08 12:32:22;;;;;;;4.88;2.90;;;11.10;64.70;;;;;;4975123;28;20229;-48
2021/08/08 12:34:53;;;;;;;4.47;2.53;;;11.00;64.70;;;;;;4974304;28;20308;-53
2021/08/08 12:37:24;;;;;;;4.28;2.33;;;11.10;64.70;;;;;;4974232;28;20598;-57
2021/08/08 12:39:54;;;;;;;6.20;2.78;;;11.10;64.70;;;;;;5004196;23;20255;-50
2021/08/08 12:42:25;;;;;;;4.55;2.47;;;11.10;64.70;;;;;;5013355;28;20232;-50
2021/08/08 12:45:03;;;;;;;4.05;2.42;;;11.10;64.70;;;;;;5013086;28;20239;-53
2021/08/08 12:47:35;;;;;;;3.20;2.20;;;11.00;64.70;;;;;;5013470;28;20250;-50
2021/08/08 12:50:17;;;;;;;4.53;2.20;;;11.00;64.60;;;;;;5013128;28;20251;-51
2021/08/08 12:52:47;;;;;;;4.63;2.42;;;11.10;64.60;;;;;;5013144;28;20228;-50
2021/08/08 12:55:17;;;;;;;4.60;2.80;;;11.00;64.60;;;;;;5012956;28;20260;-50
2021/08/08 12:57:48;;;;;;;3.45;2.35;;;11.10;64.60;;;;;;5012794;28;20232;-50
2021/08/08 13:00:19;;;;;;;2.97;2.15;;;11.10;64.60;;;;;;5012789;28;20233;-49
2021/08/08 13:02:54;;;;;;;3.95;2.38;;;11.00;64.50;;;;;;5013153;28;20672;-51
2021/08/08 13:05:25;;;;;;;3.60;2.40;;;11.00;64.50;;;;;;5012867;28;20644;-50
2021/08/08 13:07:55;;;;;;;4.88;2.65;;;11.00;64.60;;;;;;5012877;28;20196;-55
2021/08/08 13:10:26;;;;;;;4.97;2.90;;;11.00;64.60;;;;;;5012640;28;20232;-52
2021/08/08 13:12:56;;;;;;;4.03;2.33;;;11.00;64.50;;;;;;5012725;28;20247;-51